Time;durP1;ratioP1;P1;durP2;ratioP2;P2;SDS_P1;SDS_P2;PMS_P1;PMS_P2;Temp;Humidity;BMP_temperature;BMP_pressure;BME280_temperature;BME280_humidity;BME280_pressure;Samples;Min_cycle;Max_cycle;Signal;HPM_P1;HPM_P2
2022/10/14 00:00:12;;;;;;;;;;;16.20;99.90;;;;;;5053653;28;19912;-76
2022/10/14 00:02:38;;;;;;;;;;;16.20;99.90;;;;;;5053752;28;19909;-76
2022/10/14 00:05:04;;;;;;;;;;;16.20;99.90;;;;;;5053587;28;19986;-76
2022/10/14 00:07:29;;;;;;;;;;;16.30;99.90;;;;;;5053845;28;19951;-77
2022/10/14 00:09:55;;;;;;;;;;;16.20;99.90;;;;;;5053616;28;20383;-76
2022/10/14 00:12:20;;;;;;;;;;;16.20;99.90;;;;;;5053082;28;19909;-76
2022/10/14 00:14:46;;;;;;;;;;;16.20;99.90;;;;;;5052215;28;19909;-77
2022/10/14 00:17:12;;;;;;;;;;;16.30;99.90;;;;;;5053536;28;19951;-76
2022/10/14 00:19:37;;;;;;;;;;;16.10;99.90;;;;;;5053422;28;20297;-75
2022/10/14 00:22:03;;;;;;;;;;;16.10;99.90;;;;;;5053657;28;20004;-76
2022/10/14 00:24:28;;;;;;;;;;;16.00;99.90;;;;;;5053496;28;20002;-75
2022/10/14 00:26:54;;;;;;;;;;;16.00;99.90;;;;;;5053507;28;19909;-77
2022/10/14 00:29:20;;;;;;;;;;;16.00;99.90;;;;;;5053381;28;19908;-78
2022/10/14 00:31:45;;;;;;;;;;;16.00;99.90;;;;;;5052067;28;19947;-75
2022/10/14 00:34:13;;;;;;;;;;;16.00;99.90;;;;;;5053502;28;19913;-77
2022/10/14 00:36:39;;;;;;;;;;;15.90;99.90;;;;;;5053842;28;19909;-76
2022/10/14 00:39:05;;;;;;;;;;;15.80;99.90;;;;;;5053305;28;20285;-77
2022/10/14 00:41:31;;;;;;;;;;;15.80;99.90;;;;;;5053257;28;19913;-77
2022/10/14 00:44:05;;;;;;;;;;;15.80;99.90;;;;;;5053310;28;20262;-77
2022/10/14 00:46:34;;;;;;;;;;;15.70;99.90;;;;;;5053225;28;19932;-75
2022/10/14 00:49:02;;;;;;;;;;;15.80;99.90;;;;;;5053169;28;19928;-76
2022/10/14 00:51:27;;;;;;;;;;;15.80;99.90;;;;;;5053170;28;19944;-76
2022/10/14 00:53:53;;;;;;;;;;;15.90;99.90;;;;;;5053136;28;20412;-77
2022/10/14 00:56:21;;;;;;;;;;;15.90;99.90;;;;;;5053112;28;19913;-76
2022/10/14 00:58:47;;;;;;;;;;;16.00;99.90;;;;;;5053104;28;19971;-75
2022/10/14 01:01:12;;;;;;;;;;;16.00;99.90;;;;;;5053257;28;19917;-76
2022/10/14 01:03:38;;;;;;;;;;;16.10;99.90;;;;;;5053187;28;19909;-76
2022/10/14 01:06:07;;;;;;;;;;;16.10;99.90;;;;;;5053040;28;20007;-77
2022/10/14 01:08:53;;;;;;;;;;;16.10;99.90;;;;;;5053035;28;19958;-77
2022/10/14 01:11:25;;;;;;;;;;;16.10;99.90;;;;;;5053211;28;19917;-75
2022/10/14 01:14:01;;;;;;;;;;;16.20;99.90;;;;;;5052964;28;19958;-76
2022/10/14 01:16:41;;;;;;;;;;;16.20;99.90;;;;;;5053180;28;20284;-76
2022/10/14 01:19:16;;;;;;;;;;;16.10;99.90;;;;;;5053234;28;20293;-79
2022/10/14 01:21:45;;;;;;;;;;;16.20;99.90;;;;;;5053014;28;20400;-76
2022/10/14 01:24:16;;;;;;;;;;;16.20;99.90;;;;;;5056482;28;20389;-76
2022/10/14 01:26:47;;;;;;;;;;;16.20;99.90;;;;;;5056736;28;19909;-75
2022/10/14 01:29:19;;;;;;;;;;;16.20;99.90;;;;;;5055179;28;19956;-76
2022/10/14 01:31:47;;;;;;;;;;;16.20;99.90;;;;;;5056571;28;20004;-76
2022/10/14 01:34:13;;;;;;;;;;;16.20;99.90;;;;;;5056400;28;19909;-77
2022/10/14 01:36:44;;;;;;;;;;;16.20;99.90;;;;;;5057110;28;19909;-76
2022/10/14 01:39:14;;;;;;;;;;;16.20;99.90;;;;;;5056286;28;19908;-77
2022/10/14 01:41:48;;;;;;;;;;;16.20;99.90;;;;;;5056146;28;19923;-77
2022/10/14 01:44:15;;;;;;;;;;;16.20;99.90;;;;;;5056320;28;20369;-77
2022/10/14 01:46:43;;;;;;;;;;;16.20;99.90;;;;;;5056066;28;20439;-76
2022/10/14 01:49:14;;;;;;;;;;;16.20;99.90;;;;;;5054599;28;19921;-76
2022/10/14 01:51:51;;;;;;;;;;;16.10;99.90;;;;;;5056056;28;19913;-77
2022/10/14 01:54:20;;;;;;;;;;;16.10;99.90;;;;;;5056007;28;20274;-75
2022/10/14 01:56:46;;;;;;;;;;;16.10;99.90;;;;;;5055978;28;19996;-76
2022/10/14 01:59:13;;;;;;;;;;;16.00;99.90;;;;;;5056136;28;20377;-76
2022/10/14 02:01:39;;;;;;;;;;;16.10;99.90;;;;;;5056094;28;19969;-76
2022/10/14 02:04:15;;;;;;;;;;;16.10;99.90;;;;;;5056020;28;19987;-76
2022/10/14 02:06:42;;;;;;;;;;;16.10;99.90;;;;;;5056223;28;20377;-76
2022/10/14 02:09:19;;;;;;;;;;;15.90;99.90;;;;;;5055919;28;20369;-77
2022/10/14 02:11:56;;;;;;;;;;;15.90;99.90;;;;;;5055907;28;19909;-76
2022/10/14 02:14:25;;;;;;;;;;;16.00;99.90;;;;;;5055960;28;19909;-75
2022/10/14 02:16:57;;;;;;;;;;;15.90;99.90;;;;;;5055920;28;19913;-77
2022/10/14 02:19:45;;;;;;;;;;;15.70;99.90;;;;;;5055775;28;19909;-76
2022/10/14 02:22:19;;;;;;;;;;;15.90;99.90;;;;;;5054024;28;19913;-77
2022/10/14 02:24:50;;;;;;;;;;;16.00;99.90;;;;;;5055931;28;19936;-75
2022/10/14 02:27:17;;;;;;;;;;;16.00;99.90;;;;;;5055765;28;19908;-75
2022/10/14 02:29:45;;;;;;;;;;;16.00;99.90;;;;;;5055395;28;19909;-74
2022/10/14 02:32:12;;;;;;;;;;;15.70;99.90;;;;;;5055298;28;19913;-76
2022/10/14 02:34:39;;;;;;;;;;;15.40;99.90;;;;;;5054743;28;19909;-76
2022/10/14 02:37:06;;;;;;;;;;;15.20;99.90;;;;;;5055817;28;20383;-77
2022/10/14 02:39:35;;;;;;;;;;;15.10;99.90;;;;;;5055343;28;19956;-77
2022/10/14 02:42:00;;;;;;;;;;;15.10;99.90;;;;;;5053871;28;19909;-77
2022/10/14 02:44:26;;;;;;;;;;;15.20;99.90;;;;;;5054983;28;19992;-77
2022/10/14 02:46:53;;;;;;;;;;;15.20;99.90;;;;;;5055030;28;20385;-76
2022/10/14 02:49:19;;;;;;;;;;;15.20;99.90;;;;;;5055044;28;19929;-77
2022/10/14 02:51:45;;;;;;;;;;;15.20;99.90;;;;;;5055167;28;19915;-77
2022/10/14 02:54:10;;;;;;;;;;;15.20;99.90;;;;;;5054919;28;19919;-75
2022/10/14 02:56:36;;;;;;;;;;;15.20;99.90;;;;;;5054868;28;19951;-77
2022/10/14 02:59:02;;;;;;;;;;;15.20;99.90;;;;;;5054946;28;20380;-76
2022/10/14 03:01:27;;;;;;;;;;;15.00;99.90;;;;;;5054664;28;19920;-78
2022/10/14 03:03:53;;;;;;;;;;;15.00;99.90;;;;;;5054744;28;19916;-76
2022/10/14 03:06:18;;;;;;;;;;;14.90;99.90;;;;;;5054662;28;20390;-75
2022/10/14 03:08:44;;;;;;;;;;;14.90;99.90;;;;;;5054585;28;19909;-77
2022/10/14 03:11:10;;;;;;;;;;;14.90;99.90;;;;;;5054760;28;19908;-77
2022/10/14 03:13:35;;;;;;;;;;;14.90;99.90;;;;;;5054937;28;19909;-76
2022/10/14 03:16:01;;;;;;;;;;;14.90;99.90;;;;;;5053235;28;19909;-77
2022/10/14 03:18:26;;;;;;;;;;;14.80;99.90;;;;;;5054529;28;19909;-77
2022/10/14 03:20:52;;;;;;;;;;;14.80;99.90;;;;;;5054323;28;19919;-78
2022/10/14 03:23:18;;;;;;;;;;;14.80;99.90;;;;;;5054392;28;19909;-75
2022/10/14 03:25:44;;;;;;;;;;;14.70;99.90;;;;;;5054291;28;19916;-76
2022/10/14 03:28:09;;;;;;;;;;;14.70;99.90;;;;;;5054842;28;20327;-76
2022/10/14 03:30:35;;;;;;;;;;;14.80;99.90;;;;;;5054225;28;19909;-75
2022/10/14 03:33:00;;;;;;;;;;;14.80;99.90;;;;;;5054187;28;19909;-76
2022/10/14 03:35:26;;;;;;;;;;;14.90;99.90;;;;;;5054687;28;19995;-76
2022/10/14 03:37:54;;;;;;;;;;;14.90;99.90;;;;;;5054506;28;20385;-75
2022/10/14 03:40:20;;;;;;;;;;;15.00;99.90;;;;;;5053974;28;19917;-76
2022/10/14 03:42:46;;;;;;;;;;;14.90;99.90;;;;;;5054066;28;20301;-76
2022/10/14 03:45:11;;;;;;;;;;;14.80;99.90;;;;;;5053626;28;19909;-76
2022/10/14 03:47:37;;;;;;;;;;;14.70;99.90;;;;;;5053340;28;19913;-75
2022/10/14 03:50:03;;;;;;;;;;;14.80;99.90;;;;;;5053529;28;19928;-76
2022/10/14 03:52:30;;;;;;;;;;;14.90;99.90;;;;;;5054014;28;19913;-76
2022/10/14 03:54:55;;;;;;;;;;;15.10;99.90;;;;;;5053954;28;19909;-76
2022/10/14 03:57:21;;;;;;;;;;;15.00;99.90;;;;;;5052505;28;19915;-78
2022/10/14 03:59:46;;;;;;;;;;;14.70;99.90;;;;;;5053935;28;19916;-77
2022/10/14 04:02:12;;;;;;;;;;;14.80;99.90;;;;;;5054042;28;19909;-77
2022/10/14 04:04:38;;;;;;;;;;;14.90;99.90;;;;;;5053954;28;19908;-77
2022/10/14 04:07:03;;;;;;;;;;;14.90;99.90;;;;;;5053713;28;20082;-76
2022/10/14 04:09:29;;;;;;;;;;;15.00;99.90;;;;;;5053603;28;20306;-76
2022/10/14 04:11:56;;;;;;;;;;;15.10;99.90;;;;;;5053663;28;19947;-77
2022/10/14 04:14:25;;;;;;;;;;;14.90;99.90;;;;;;5053607;28;19916;-76
2022/10/14 04:16:51;;;;;;;;;;;15.10;99.90;;;;;;5052277;28;19909;-78
2022/10/14 04:19:17;;;;;;;;;;;15.20;99.90;;;;;;5053600;28;19915;-75
2022/10/14 04:21:42;;;;;;;;;;;15.10;99.90;;;;;;5053487;28;20389;-75
2022/10/14 04:24:08;;;;;;;;;;;15.00;99.90;;;;;;5053490;28;19915;-76
2022/10/14 04:26:34;;;;;;;;;;;14.90;99.90;;;;;;5053501;28;19916;-77
2022/10/14 04:29:00;;;;;;;;;;;14.90;99.90;;;;;;5053467;28;19970;-77
2022/10/14 04:31:25;;;;;;;;;;;14.80;99.90;;;;;;5052121;28;20004;-78
2022/10/14 04:33:51;;;;;;;;;;;14.80;99.90;;;;;;5053177;28;19909;-77
2022/10/14 04:36:16;;;;;;;;;;;14.80;99.90;;;;;;5053997;28;19948;-75
2022/10/14 04:38:42;;;;;;;;;;;14.90;99.90;;;;;;5053358;28;19916;-75
2022/10/14 04:41:08;;;;;;;;;;;14.80;99.90;;;;;;5053247;28;19958;-76
2022/10/14 04:43:33;;;;;;;;;;;14.90;99.90;;;;;;5053309;28;19908;-76
2022/10/14 04:45:59;;;;;;;;;;;14.90;99.90;;;;;;5053353;28;19988;-75
2022/10/14 04:48:24;;;;;;;;;;;15.00;99.90;;;;;;5053316;28;20400;-77
2022/10/14 04:50:51;;;;;;;;;;;14.90;99.90;;;;;;5051739;28;19921;-76
2022/10/14 04:53:16;;;;;;;;;;;14.90;99.90;;;;;;5053399;28;20487;-76
2022/10/14 04:55:43;;;;;;;;;;;14.90;99.90;;;;;;5052964;28;19951;-77
2022/10/14 04:58:08;;;;;;;;;;;14.90;99.90;;;;;;5055255;28;20008;-75
2022/10/14 05:00:34;;;;;;;;;;;14.80;99.90;;;;;;5057051;28;20006;-77
2022/10/14 05:02:59;;;;;;;;;;;14.80;99.90;;;;;;5057018;28;19913;-77
2022/10/14 05:05:27;;;;;;;;;;;14.80;99.90;;;;;;5057014;28;20431;-76
2022/10/14 05:07:52;;;;;;;;;;;14.80;99.90;;;;;;5057348;28;19970;-77
2022/10/14 05:10:18;;;;;;;;;;;14.80;99.90;;;;;;5057140;28;19913;-78
2022/10/14 05:12:44;;;;;;;;;;;14.80;99.90;;;;;;5057064;28;19992;-75
2022/10/14 05:15:10;;;;;;;;;;;14.70;99.90;;;;;;5056865;28;19913;-76
2022/10/14 05:17:36;;;;;;;;;;;14.60;99.90;;;;;;5055473;28;20326;-76
2022/10/14 05:20:02;;;;;;;;;;;14.60;99.90;;;;;;5057020;28;20370;-75
2022/10/14 05:22:28;;;;;;;;;;;14.60;99.90;;;;;;5056645;28;19909;-77
2022/10/14 05:24:53;;;;;;;;;;;14.50;99.90;;;;;;5056817;28;19909;-75
2022/10/14 05:27:19;;;;;;;;;;;14.50;99.90;;;;;;5056612;28;20331;-76
2022/10/14 05:29:45;;;;;;;;;;;14.50;99.90;;;;;;5056951;28;19916;-78
2022/10/14 05:32:10;;;;;;;;;;;14.40;99.90;;;;;;5056868;28;19959;-78
2022/10/14 05:34:36;;;;;;;;;;;14.30;99.90;;;;;;5056508;28;19909;-77
2022/10/14 05:37:01;;;;;;;;;;;14.30;99.90;;;;;;5056925;28;19909;-76
2022/10/14 05:39:27;;;;;;;;;;;14.30;99.90;;;;;;5056572;28;20055;-76
2022/10/14 05:41:52;;;;;;;;;;;14.20;99.90;;;;;;5056314;28;20383;-76
2022/10/14 05:44:18;;;;;;;;;;;14.10;99.90;;;;;;5056211;28;19995;-76
2022/10/14 05:46:44;;;;;;;;;;;14.10;99.90;;;;;;5056032;28;19916;-76
2022/10/14 05:49:10;;;;;;;;;;;14.00;99.90;;;;;;5055890;28;19928;-77
2022/10/14 05:51:36;;;;;;;;;;;14.00;99.90;;;;;;5056015;28;19909;-76
2022/10/14 05:54:02;;;;;;;;;;;14.00;99.90;;;;;;5056295;28;19932;-78
2022/10/14 05:56:27;;;;;;;;;;;13.90;99.90;;;;;;5055753;28;19916;-76
2022/10/14 05:58:53;;;;;;;;;;;14.00;99.90;;;;;;5055920;28;19976;-76
2022/10/14 06:01:18;;;;;;;;;;;13.90;99.90;;;;;;5055764;28;20433;-76
2022/10/14 06:03:44;;;;;;;;;;;13.90;99.90;;;;;;5056092;28;19912;-76
2022/10/14 06:06:11;;;;;;;;;;;13.90;99.90;;;;;;5054571;28;19958;-75
2022/10/14 06:08:37;;;;;;;;;;;13.90;99.90;;;;;;5055565;28;19991;-75
2022/10/14 06:11:03;;;;;;;;;;;13.90;99.90;;;;;;5055467;28;20381;-77
2022/10/14 06:13:29;;;;;;;;;;;13.90;99.90;;;;;;5056242;28;19916;-77
2022/10/14 06:15:54;;;;;;;;;;;13.90;99.90;;;;;;5056038;28;20285;-75
2022/10/14 06:18:20;;;;;;;;;;;14.00;99.90;;;;;;5055930;28;19916;-76
2022/10/14 06:20:52;;;;;;;;;;;13.90;99.90;;;;;;5055602;28;19913;-76
2022/10/14 06:23:18;;;;;;;;;;;14.00;99.90;;;;;;5056697;28;19909;-75
2022/10/14 06:25:43;;;;;;;;;;;13.90;99.90;;;;;;5073440;28;20299;-74
2022/10/14 06:28:09;;;;;;;;;;;14.00;99.90;;;;;;5075029;28;19912;-75
2022/10/14 06:30:34;;;;;;;;;;;14.00;99.90;;;;;;5075369;28;20361;-76
2022/10/14 06:33:00;;;;;;;;;;;13.90;99.90;;;;;;5075355;28;19916;-77
2022/10/14 06:35:26;;;;;;;;;;;14.00;99.90;;;;;;5075278;28;20003;-77
2022/10/14 06:37:51;;;;;;;;;;;14.00;99.90;;;;;;5075828;28;20426;-75
2022/10/14 06:40:17;;;;;;;;;;;14.00;99.90;;;;;;5075141;28;20345;-76
2022/10/14 06:42:42;;;;;;;;;;;14.00;99.90;;;;;;5075232;28;19909;-76
2022/10/14 06:45:08;;;;;;;;;;;14.00;99.90;;;;;;5075164;28;19909;-75
2022/10/14 06:47:34;;;;;;;;;;;14.00;99.90;;;;;;5074986;28;19908;-75
2022/10/14 06:49:59;;;;;;;;;;;14.00;99.90;;;;;;5073473;28;19928;-78
2022/10/14 06:52:25;;;;;;;;;;;14.00;99.90;;;;;;5074938;28;19909;-75
2022/10/14 06:54:51;;;;;;;;;;;14.00;99.90;;;;;;5074892;28;19916;-76
2022/10/14 06:57:16;;;;;;;;;;;14.00;99.90;;;;;;5074843;28;19995;-76
2022/10/14 06:59:42;;;;;;;;;;;14.00;99.90;;;;;;5074758;28;19909;-76
2022/10/14 07:02:08;;;;;;;;;;;14.00;99.90;;;;;;5074903;28;20361;-77
2022/10/14 07:04:34;;;;;;;;;;;14.00;99.90;;;;;;5074694;28;19915;-77
2022/10/14 07:06:59;;;;;;;;;;;14.00;99.90;;;;;;5075066;28;19952;-77
2022/10/14 07:09:25;;;;;;;;;;;14.00;99.90;;;;;;5074653;28;20397;-76
2022/10/14 07:11:50;;;;;;;;;;;14.00;99.90;;;;;;5074576;28;19909;-78
2022/10/14 07:14:16;;;;;;;;;;;14.10;99.90;;;;;;5074620;28;20022;-77
2022/10/14 07:16:42;;;;;;;;;;;14.10;99.90;;;;;;5074445;28;19931;-76
2022/10/14 07:19:07;;;;;;;;;;;14.10;99.90;;;;;;5074920;28;19961;-77
2022/10/14 07:21:33;;;;;;;;;;;14.30;99.90;;;;;;5074197;28;19912;-76
2022/10/14 07:23:59;;;;;;;;;;;14.30;99.90;;;;;;5074773;28;19909;-77
2022/10/14 07:26:24;;;;;;;;;;;14.20;99.90;;;;;;5074296;28;20319;-76
2022/10/14 07:28:50;;;;;;;;;;;14.30;99.90;;;;;;5074201;28;19909;-75
2022/10/14 07:31:16;;;;;;;;;;;14.20;99.90;;;;;;5074378;28;19915;-77
2022/10/14 07:33:42;;;;;;;;;;;14.30;99.90;;;;;;5073082;28;19999;-76
2022/10/14 07:36:09;;;;;;;;;;;14.30;99.90;;;;;;5074284;28;19934;-78
2022/10/14 07:38:34;;;;;;;;;;;14.30;99.90;;;;;;5074054;28;19909;-77
2022/10/14 07:41:02;;;;;;;;;;;14.40;99.90;;;;;;5073461;28;19913;-77
2022/10/14 07:43:28;;;;;;;;;;;14.50;99.90;;;;;;5072311;28;19909;-77
2022/10/14 07:46:00;;;;;;;;;;;14.50;99.90;;;;;;5074007;28;20003;-77
2022/10/14 07:48:29;;;;;;;;;;;14.50;99.90;;;;;;5073831;28;19934;-76
2022/10/14 07:50:55;;;;;;;;;;;14.60;99.90;;;;;;5073046;28;19958;-77
2022/10/14 07:53:21;;;;;;;;;;;14.60;99.90;;;;;;5073661;28;19939;-78
2022/10/14 07:55:51;;;;;;;;;;;14.70;99.90;;;;;;5074196;28;19908;-79
2022/10/14 07:58:20;;;;;;;;;;;14.70;99.90;;;;;;5072714;28;19909;-78
2022/10/14 08:00:47;;;;;;;;;;;14.70;99.90;;;;;;5074021;28;19913;-80
2022/10/14 08:03:13;;;;;;;;;;;14.70;99.90;;;;;;5072352;28;19969;-77
2022/10/14 08:05:39;;;;;;;;;;;14.80;99.90;;;;;;5072525;28;19915;-77
2022/10/14 08:08:05;;;;;;;;;;;14.90;99.90;;;;;;5072723;28;19915;-77
2022/10/14 08:10:31;;;;;;;;;;;15.00;99.90;;;;;;5073714;28;19908;-76
2022/10/14 08:12:57;;;;;;;;;;;15.00;99.90;;;;;;5072322;28;20392;-75
2022/10/14 08:15:27;;;;;;;;;;;15.10;99.90;;;;;;5073658;28;19912;-77
2022/10/14 08:17:53;;;;;;;;;;;15.10;99.90;;;;;;5073390;28;19908;-78
2022/10/14 08:20:18;;;;;;;;;;;15.20;99.90;;;;;;5073903;28;19912;-76
2022/10/14 08:22:44;;;;;;;;;;;15.40;99.90;;;;;;5073739;28;19997;-76
2022/10/14 08:25:10;;;;;;;;;;;15.40;99.90;;;;;;5074311;28;19998;-77
2022/10/14 08:27:35;;;;;;;;;;;15.60;99.90;;;;;;5073609;28;19912;-77
2022/10/14 08:30:01;;;;;;;;;;;15.60;99.90;;;;;;5073738;28;19908;-77
2022/10/14 08:32:27;;;;;;;;;;;15.70;99.90;;;;;;5074738;28;19908;-77
2022/10/14 08:34:54;;;;;;;;;;;15.80;99.90;;;;;;5076320;28;20316;-77
2022/10/14 08:37:20;;;;;;;;;;;15.90;99.90;;;;;;5078068;28;19972;-77
2022/10/14 08:39:46;;;;;;;;;;;16.00;99.90;;;;;;5077430;28;19912;-77
2022/10/14 08:42:34;;;;;;;;;;;16.10;99.90;;;;;;5077459;28;19909;-79
2022/10/14 08:45:02;;;;;;;;;;;16.10;99.90;;;;;;5077386;28;19912;-76
2022/10/14 08:47:34;;;;;;;;;;;16.20;99.90;;;;;;5077336;28;19908;-76
2022/10/14 08:50:06;;;;;;;;;;;16.30;99.90;;;;;;5077186;28;19963;-76
2022/10/14 08:52:31;;;;;;;;;;;16.60;99.90;;;;;;5077345;28;19916;-80
2022/10/14 08:54:59;;;;;;;;;;;16.90;99.90;;;;;;5077221;28;19908;-77
2022/10/14 08:57:26;;;;;;;;;;;17.10;99.90;;;;;;5077179;28;19997;-75
2022/10/14 08:59:52;;;;;;;;;;;17.30;99.90;;;;;;5077357;28;19915;-76
2022/10/14 09:02:27;;;;;;;;;;;17.40;99.90;;;;;;5077048;28;19958;-78
2022/10/14 09:04:52;;;;;;;;;;;17.40;99.90;;;;;;5077057;28;19909;-78
2022/10/14 09:07:18;;;;;;;;;;;17.60;99.90;;;;;;5076913;28;19909;-76
2022/10/14 09:09:47;;;;;;;;;;;17.70;99.90;;;;;;5076876;28;20319;-78
2022/10/14 09:12:14;;;;;;;;;;;17.80;99.90;;;;;;5076919;28;19915;-78
2022/10/14 09:14:45;;;;;;;;;;;17.80;99.90;;;;;;5075541;28;19920;-77
2022/10/14 09:17:23;;;;;;;;;;;17.80;99.90;;;;;;5076790;28;20369;-77
2022/10/14 09:20:04;;;;;;;;;;;17.90;99.90;;;;;;5076588;28;19914;-77
2022/10/14 09:22:29;;;;;;;;;;;17.90;99.90;;;;;;5076867;28;19919;-78
2022/10/14 09:24:56;;;;;;;;;;;18.00;99.90;;;;;;5076633;28;19912;-76
2022/10/14 09:27:22;;;;;;;;;;;18.00;99.90;;;;;;5076626;28;19916;-78
2022/10/14 09:29:48;;;;;;;;;;;18.20;99.90;;;;;;5076763;28;19909;-76
2022/10/14 09:32:34;;;;;;;;;;;18.20;99.90;;;;;;5076448;28;20372;-78
2022/10/14 09:35:00;;;;;;;;;;;18.30;99.90;;;;;;5075756;28;19916;-77
2022/10/14 09:37:27;;;;;;;;;;;18.40;99.90;;;;;;5076975;28;19987;-76
2022/10/14 09:39:54;;;;;;;;;;;18.40;99.90;;;;;;5076407;28;20058;-78
2022/10/14 09:42:22;;;;;;;;;;;18.60;99.90;;;;;;5076272;28;19916;-78
2022/10/14 09:45:07;;;;;;;;;;;18.60;99.90;;;;;;5076053;28;19916;-77
2022/10/14 09:47:34;;;;;;;;;;;18.70;99.90;;;;;;5074017;28;19957;-78
2022/10/14 09:50:00;;;;;;;;;;;19.00;99.90;;;;;;5076115;28;19924;-78
2022/10/14 09:52:27;;;;;;;;;;;19.20;99.90;;;;;;5076345;28;19942;-77
2022/10/14 09:54:57;;;;;;;;;;;19.30;99.90;;;;;;5075624;28;20147;-76
2022/10/14 09:57:24;;;;;;;;;;;19.40;99.90;;;;;;5074966;28;19909;-79
2022/10/14 10:00:00;;;;;;;;;;;19.60;99.90;;;;;;5074809;28;20011;-77
2022/10/14 10:02:39;;;;;;;;;;;19.70;99.90;;;;;;5074410;28;20385;-76
2022/10/14 10:05:23;;;;;;;;;;;19.70;99.90;;;;;;5074991;28;19908;-78
2022/10/14 10:08:03;;;;;;;;;;;19.80;99.90;;;;;;5075687;28;19912;-76
2022/10/14 10:10:29;;;;;;;;;;;19.70;99.90;;;;;;5075792;28;19909;-76
2022/10/14 10:12:55;;;;;;;;;;;19.70;99.90;;;;;;5075749;28;20426;-77
2022/10/14 10:15:21;;;;;;;;;;;19.60;99.90;;;;;;5075479;28;20004;-76
2022/10/14 10:17:47;;;;;;;;;;;19.60;99.90;;;;;;5075633;28;20358;-77
2022/10/14 10:20:19;;;;;;;;;;;19.60;99.90;;;;;;5075548;28;20403;-78
2022/10/14 10:22:45;;;;;;;;;;;19.70;99.90;;;;;;5074260;28;19936;-77
2022/10/14 10:25:17;;;;;;;;;;;19.60;99.90;;;;;;5075504;28;19912;-78
2022/10/14 10:27:44;;;;;;;;;;;19.50;99.90;;;;;;5075503;28;20285;-79
2022/10/14 10:30:13;;;;;;;;;;;19.50;99.90;;;;;;5075419;28;20403;-78
2022/10/14 10:32:48;;;;;;;;;;;19.50;99.90;;;;;;5075280;28;19909;-77
2022/10/14 10:35:32;;;;;;;;;;;19.40;99.90;;;;;;5075500;28;20369;-76
2022/10/14 10:37:59;;;;;;;;;;;19.70;99.90;;;;;;5076079;28;19908;-78
2022/10/14 10:40:24;;;;;;;;;;;20.10;99.90;;;;;;5070539;28;19955;-79
2022/10/14 10:42:50;;;;;;;;;;;20.60;99.90;;;;;;5056534;28;19952;-78
2022/10/14 10:45:25;;;;;;;;;;;21.80;99.90;;;;;;5062140;28;19909;-79
2022/10/14 10:48:00;;;;;;;;;;;22.20;99.90;;;;;;5065495;28;19908;-78
2022/10/14 10:50:45;;;;;;;;;;;22.00;99.90;;;;;;5065066;28;20003;-79
2022/10/14 10:53:23;;;;;;;;;;;21.80;99.90;;;;;;5074047;28;19916;-77
2022/10/14 10:55:58;;;;;;;;;;;21.60;99.90;;;;;;5073857;28;19958;-79
2022/10/14 10:58:26;;;;;;;;;;;21.50;99.90;;;;;;5074974;28;19913;-79
2022/10/14 11:01:15;;;;;;;;;;;21.40;99.90;;;;;;5068234;28;19916;-78
2022/10/14 11:03:46;;;;;;;;;;;21.50;99.90;;;;;;5064117;28;19924;-79
2022/10/14 11:12:21;;;;;;;;;;;22.30;99.90;;;;;;5073568;28;20300;-80
2022/10/14 11:15:05;;;;;;;;;;;22.20;99.90;;;;;;5074046;28;19915;-77
2022/10/14 11:17:34;;;;;;;;;;;21.70;99.90;;;;;;5069571;28;19999;-77
2022/10/14 11:20:17;;;;;;;;;;;21.60;99.90;;;;;;5073770;28;20387;-77
2022/10/14 11:22:55;;;;;;;;;;;21.70;99.90;;;;;;5068479;28;19992;-78
2022/10/14 11:25:30;;;;;;;;;;;21.50;99.90;;;;;;5073822;28;19913;-78
2022/10/14 11:28:14;;;;;;;;;;;21.10;99.90;;;;;;5073865;28;19909;-79
2022/10/14 11:30:48;;;;;;;;;;;20.90;99.90;;;;;;5067821;28;19912;-77
2022/10/14 11:33:20;;;;;;;;;;;20.50;99.90;;;;;;5074268;28;20273;-78
2022/10/14 11:35:46;;;;;;;;;;;20.20;99.90;;;;;;5074244;28;19909;-77
2022/10/14 11:38:30;;;;;;;;;;;20.30;99.90;;;;;;5074567;28;19957;-79
2022/10/14 11:40:59;;;;;;;;;;;20.30;99.90;;;;;;5073972;28;19919;-78
2022/10/14 11:43:27;;;;;;;;;;;20.60;99.90;;;;;;5073953;28;20353;-77
2022/10/14 11:45:52;;;;;;;;;;;20.80;99.90;;;;;;5073874;28;20011;-77
2022/10/14 11:48:27;;;;;;;;;;;20.80;99.90;;;;;;5073755;28;19959;-77
2022/10/14 11:50:55;;;;;;;;;;;20.80;99.90;;;;;;5073949;28;20438;-77
2022/10/14 11:53:27;;;;;;;;;;;20.60;99.90;;;;;;5072576;28;19962;-78
2022/10/14 11:55:59;;;;;;;;;;;20.40;99.90;;;;;;5074013;28;20411;-78
2022/10/14 11:58:25;;;;;;;;;;;20.30;99.90;;;;;;5073894;28;19908;-77
2022/10/14 12:00:53;;;;;;;;;;;20.30;99.90;;;;;;5073676;28;20017;-78
2022/10/14 12:03:27;;;;;;;;;;;20.10;99.90;;;;;;5073813;28;20014;-78
2022/10/14 12:05:58;;;;;;;;;;;19.80;99.90;;;;;;5073767;28;19914;-78
2022/10/14 12:08:45;;;;;;;;;;;19.70;99.90;;;;;;5072979;28;19908;-78
2022/10/14 12:11:31;;;;;;;;;;;19.80;99.90;;;;;;5074018;28;19939;-76
2022/10/14 12:14:16;;;;;;;;;;;19.80;99.90;;;;;;5073682;28;19915;-77
2022/10/14 12:16:43;;;;;;;;;;;19.90;99.90;;;;;;5073574;28;19909;-77
2022/10/14 12:19:09;;;;;;;;;;;19.70;99.90;;;;;;5073576;28;19909;-80
2022/10/14 12:21:39;;;;;;;;;;;19.50;99.90;;;;;;5073671;28;19913;-79
2022/10/14 12:24:14;;;;;;;;;;;19.40;99.90;;;;;;5073545;28;19916;-78
2022/10/14 12:26:49;;;;;;;;;;;19.30;99.90;;;;;;5073764;28;20469;-79
2022/10/14 12:29:17;;;;;;;;;;;19.30;99.90;;;;;;5073415;28;19991;-79
2022/10/14 12:31:48;;;;;;;;;;;19.30;99.90;;;;;;5073408;28;20007;-79
2022/10/14 12:34:14;;;;;;;;;;;19.30;99.90;;;;;;5073540;28;20419;-77
2022/10/14 12:36:41;;;;;;;;;;;19.30;99.90;;;;;;5073413;28;20088;-76
2022/10/14 12:39:15;;;;;;;;;;;19.30;99.90;;;;;;5074235;28;20003;-77
2022/10/14 12:41:50;;;;;;;;;;;19.40;99.90;;;;;;5073362;28;19920;-79
2022/10/14 12:44:18;;;;;;;;;;;19.40;99.90;;;;;;5073455;28;20288;-78
2022/10/14 12:46:44;;;;;;;;;;;19.40;99.90;;;;;;5073561;28;19943;-78
2022/10/14 12:49:42;;;;;;;;;;;19.40;99.90;;;;;;5073338;28;19925;-77
2022/10/14 12:52:08;;;;;;;;;;;19.30;99.90;;;;;;5028956;28;19909;-77
2022/10/14 12:54:35;;;;;;;;;;;19.10;99.90;;;;;;5073331;28;19958;-77
2022/10/14 12:57:03;;;;;;;;;;;19.10;99.90;;;;;;5073390;28;19939;-77
2022/10/14 12:59:30;;;;;;;;;;;19.00;99.90;;;;;;5071948;28;20333;-78
2022/10/14 13:02:03;;;;;;;;;;;18.90;99.90;;;;;;5073157;28;19913;-78
2022/10/14 13:04:29;;;;;;;;;;;18.90;99.90;;;;;;5073278;28;19909;-77
2022/10/14 13:07:13;;;;;;;;;;;19.10;99.90;;;;;;5073239;28;20406;-78
2022/10/14 13:09:39;;;;;;;;;;;19.30;99.90;;;;;;5073156;28;19913;-77
2022/10/14 13:12:07;;;;;;;;;;;19.60;99.90;;;;;;5073340;28;20334;-77
2022/10/14 13:14:51;;;;;;;;;;;19.50;99.90;;;;;;5073081;28;19909;-77
2022/10/14 13:17:27;;;;;;;;;;;19.40;99.90;;;;;;5071817;28;19912;-79
2022/10/14 13:19:52;;;;;;;;;;;19.40;99.90;;;;;;5076061;28;20368;-79
2022/10/14 13:22:27;;;;;;;;;;;19.30;99.90;;;;;;5077258;28;19923;-78
2022/10/14 13:25:01;;;;;;;;;;;19.10;99.90;;;;;;5076670;28;19916;-77
2022/10/14 13:27:28;;;;;;;;;;;19.00;99.90;;;;;;5075526;28;19908;-78
2022/10/14 13:29:54;;;;;;;;;;;19.10;99.90;;;;;;5076755;28;19931;-79
2022/10/14 13:32:31;;;;;;;;;;;19.00;99.90;;;;;;5076623;28;20296;-79
2022/10/14 13:35:06;;;;;;;;;;;18.80;99.90;;;;;;5076640;28;19958;-77
2022/10/14 13:37:33;;;;;;;;;;;18.90;99.90;;;;;;5077544;28;19913;-78
2022/10/14 13:40:18;;;;;;;;;;;19.30;99.90;;;;;;5076337;28;19931;-79
2022/10/14 13:42:44;;;;;;;;;;;19.70;99.90;;;;;;5076418;28;19912;-77
2022/10/14 13:45:11;;;;;;;;;;;20.10;99.90;;;;;;5076224;28;19974;-77
2022/10/14 13:47:40;;;;;;;;;;;20.20;99.90;;;;;;5076514;28;19924;-78
2022/10/14 13:50:09;;;;;;;;;;;20.20;99.90;;;;;;5075885;28;20011;-79
2022/10/14 13:52:35;;;;;;;;;;;20.20;99.90;;;;;;5076259;28;20265;-79
2022/10/14 13:55:18;;;;;;;;;;;19.90;99.90;;;;;;5074779;28;19916;-78
2022/10/14 13:57:58;;;;;;;;;;;19.90;99.90;;;;;;5076328;28;19973;-78
2022/10/14 14:00:28;;;;;;;;;;;19.70;99.90;;;;;;5075952;28;19919;-78
2022/10/14 14:02:53;;;;;;;;;;;19.60;99.90;;;;;;5075941;28;19909;-77
2022/10/14 14:05:19;;;;;;;;;;;19.70;99.90;;;;;;5076045;28;19995;-79
2022/10/14 14:07:46;;;;;;;;;;;19.80;99.90;;;;;;5074694;28;20326;-77
2022/10/14 14:10:16;;;;;;;;;;;19.90;99.90;;;;;;5075996;28;19908;-76
2022/10/14 14:12:42;;;;;;;;;;;19.80;99.90;;;;;;5075691;28;19975;-78
2022/10/14 14:15:16;;;;;;;;;;;19.80;99.90;;;;;;5076051;28;19909;-79
2022/10/14 14:17:42;;;;;;;;;;;19.90;99.90;;;;;;5074089;28;19908;-77
2022/10/14 14:20:11;;;;;;;;;;;20.00;99.90;;;;;;5075722;28;20377;-77
2022/10/14 14:22:41;;;;;;;;;;;20.10;99.90;;;;;;5075645;28;19994;-77
2022/10/14 14:25:19;;;;;;;;;;;20.30;99.90;;;;;;5075904;28;19939;-79
2022/10/14 14:27:55;;;;;;;;;;;20.40;99.90;;;;;;5091013;28;19909;-79
2022/10/14 14:30:30;;;;;;;;;;;20.40;99.90;;;;;;5074578;28;19912;-79